createdAt,value
2022-10-22T00:01:14.948Z,58.75
2022-10-22T00:03:43.811Z,58.77
2022-10-22T00:06:12.799Z,59.41
2022-10-22T00:08:41.848Z,58.91
2022-10-22T00:11:13.367Z,59.38
2022-10-22T00:13:40.494Z,59.02
2022-10-22T00:16:12.593Z,58.57
2022-10-22T00:18:41.901Z,58.49
2022-10-22T00:21:08.843Z,58.76
2022-10-22T00:23:35.360Z,58.76
2022-10-22T00:26:04.109Z,58.24
2022-10-22T00:28:30.601Z,58.66
2022-10-22T00:31:02.628Z,58.02
2022-10-22T00:33:32.169Z,58.41
2022-10-22T00:35:58.958Z,58.49
2022-10-22T00:38:28.028Z,58.78
2022-10-22T00:40:56.640Z,58.63
2022-10-22T00:43:23.242Z,58.00
2022-10-22T00:45:51.995Z,58.45
2022-10-22T00:48:31.045Z,58.01
2022-10-22T00:51:06.327Z,59.05
2022-10-22T00:53:42.873Z,59.15
2022-10-22T00:56:10.653Z,58.14
2022-10-22T00:58:42.426Z,58.90
2022-10-22T01:01:14.060Z,58.81
2022-10-22T01:03:40.933Z,59.04
2022-10-22T01:06:07.694Z,58.60
2022-10-22T01:09:04.623Z,58.49
2022-10-22T01:11:54.220Z,58.96
2022-10-22T01:14:32.945Z,58.14
2022-10-22T01:17:08.129Z,58.69
2022-10-22T01:20:01.170Z,58.02
2022-10-22T01:22:40.794Z,59.16
2022-10-22T01:25:30.770Z,59.19
2022-10-22T01:28:18.511Z,58.81
2022-10-22T01:30:46.281Z,59.07
2022-10-22T01:33:16.648Z,58.80
2022-10-22T01:35:45.294Z,58.66
2022-10-22T01:38:19.394Z,59.25
2022-10-22T01:40:51.696Z,59.32
2022-10-22T01:43:20.556Z,58.67
2022-10-22T01:46:07.056Z,59.60
2022-10-22T01:48:42.667Z,58.71
2022-10-22T01:51:20.910Z,58.66
2022-10-22T01:54:22.166Z,58.35
2022-10-22T01:57:16.135Z,58.35
2022-10-22T01:59:58.661Z,59.95
2022-10-22T02:02:43.427Z,59.48
2022-10-22T02:05:15.744Z,59.42
2022-10-22T02:07:52.656Z,58.85
2022-10-22T02:10:20.212Z,60.16
2022-10-22T02:12:54.449Z,59.56
2022-10-22T02:15:23.964Z,59.17
2022-10-22T02:17:55.587Z,59.27
2022-10-22T02:20:29.625Z,60.43
2022-10-22T02:22:59.619Z,60.36
2022-10-22T02:25:30.968Z,60.22
2022-10-22T02:28:19.813Z,62.47
2022-10-22T02:30:53.984Z,62.41
2022-10-22T02:33:28.279Z,62.14
2022-10-22T02:35:56.247Z,62.13
2022-10-22T02:38:29.619Z,61.71
2022-10-22T02:40:56.307Z,61.70
2022-10-22T02:43:28.923Z,63.07
2022-10-22T02:45:57.651Z,62.61
2022-10-22T02:48:24.183Z,61.86
2022-10-22T02:50:55.210Z,61.43
2022-10-22T02:53:21.679Z,61.11
2022-10-22T02:55:48.174Z,61.29
2022-10-22T02:58:17.160Z,61.33
2022-10-22T03:00:45.969Z,60.51
2022-10-22T03:03:15.294Z,60.54
2022-10-22T03:05:46.727Z,60.67
2022-10-22T03:08:15.454Z,61.29
2022-10-22T03:10:41.971Z,61.94
2022-10-22T03:13:10.662Z,61.25
2022-10-22T03:15:37.154Z,62.15
2022-10-22T03:18:04.197Z,62.63
2022-10-22T03:20:30.693Z,62.11
2022-10-22T03:23:00.641Z,62.39
2022-10-22T03:25:28.532Z,62.20
2022-10-22T03:27:57.979Z,63.33
2022-10-22T03:30:26.981Z,63.50
2022-10-22T03:32:53.435Z,63.72
2022-10-22T03:35:19.997Z,63.64
2022-10-22T03:37:51.609Z,63.54
2022-10-22T03:40:21.387Z,63.58
2022-10-22T03:42:50.357Z,62.24
2022-10-22T03:45:16.864Z,63.24
2022-10-22T03:47:43.513Z,63.11
2022-10-22T03:50:10.915Z,62.88
2022-10-22T03:52:39.347Z,62.63
2022-10-22T03:55:07.503Z,62.00
2022-10-22T03:57:36.792Z,63.06
2022-10-22T04:00:05.696Z,64.34
2022-10-22T04:02:34.746Z,63.92
2022-10-22T04:05:01.163Z,66.10
2022-10-22T04:07:27.706Z,67.18
2022-10-22T04:09:54.185Z,67.42
2022-10-22T04:12:20.766Z,66.45
2022-10-22T04:14:47.754Z,66.96
2022-10-22T04:17:14.496Z,66.40
2022-10-22T04:19:40.981Z,65.44
2022-10-22T04:22:12.013Z,65.77
2022-10-22T04:24:43.411Z,65.30
2022-10-22T04:27:14.916Z,64.83
2022-10-22T04:29:41.397Z,65.35
2022-10-22T04:32:10.206Z,65.61
2022-10-22T04:34:41.608Z,65.98
2022-10-22T04:37:10.352Z,65.44
2022-10-22T04:39:36.849Z,66.74
2022-10-22T04:42:03.931Z,66.38
2022-10-22T04:44:33.066Z,66.91
2022-10-22T04:47:01.828Z,66.49
2022-10-22T04:49:28.404Z,66.13
2022-10-22T04:51:57.143Z,65.76
2022-10-22T04:54:29.013Z,66.29
2022-10-22T04:56:58.716Z,67.02
2022-10-22T04:59:25.315Z,66.63
2022-10-22T05:01:51.841Z,66.33
2022-10-22T05:04:19.739Z,65.70
2022-10-22T05:06:48.655Z,66.87
2022-10-22T05:09:20.519Z,71.63
2022-10-22T05:11:51.696Z,67.33
2022-10-22T05:14:20.897Z,65.62
2022-10-22T05:16:48.707Z,65.98
2022-10-22T05:19:27.619Z,65.85
2022-10-22T05:21:59.481Z,65.70
2022-10-22T05:24:27.067Z,65.88
2022-10-22T05:26:57.334Z,64.93
2022-10-22T05:29:24.913Z,65.04
2022-10-22T05:31:53.744Z,66.26
2022-10-22T05:34:22.664Z,66.38
2022-10-22T05:36:51.699Z,65.14
2022-10-22T05:39:18.258Z,66.09
2022-10-22T05:41:44.879Z,65.05
2022-10-22T05:44:16.265Z,67.06
2022-10-22T05:46:45.311Z,65.53
2022-10-22T05:49:15.193Z,67.03
2022-10-22T05:51:44.327Z,67.23
2022-10-22T05:54:16.947Z,67.73
2022-10-22T05:56:43.450Z,65.67
2022-10-22T05:59:13.124Z,65.64
2022-10-22T06:01:40.751Z,65.88
2022-10-22T06:04:10.783Z,66.94
2022-10-22T06:06:40.624Z,66.96
2022-10-22T06:09:18.457Z,67.13
2022-10-22T06:11:48.989Z,66.37
2022-10-22T06:14:16.571Z,66.72
2022-10-22T06:16:43.536Z,66.11
2022-10-22T06:19:14.076Z,66.86
2022-10-22T06:21:44.049Z,66.39
2022-10-22T06:24:11.519Z,65.91
2022-10-22T06:26:43.840Z,65.38
2022-10-22T06:29:12.902Z,67.02
2022-10-22T06:31:42.106Z,65.82
2022-10-22T06:34:14.666Z,66.36
2022-10-22T06:36:44.955Z,65.20
2022-10-22T06:39:12.924Z,65.71
2022-10-22T06:41:39.436Z,65.49
2022-10-22T06:44:05.936Z,65.60
2022-10-22T06:46:34.657Z,65.53
2022-10-22T06:49:05.782Z,65.53
2022-10-22T06:51:35.103Z,64.58
2022-10-22T06:54:01.579Z,61.66
2022-10-22T06:56:29.062Z,62.30
2022-10-22T06:58:58.685Z,63.37
2022-10-22T07:01:31.319Z,62.37
2022-10-22T07:03:58.190Z,62.38
2022-10-22T07:06:26.932Z,62.23
2022-10-22T07:08:54.653Z,61.05
2022-10-22T07:11:45.319Z,60.88
2022-10-22T07:14:12.909Z,61.09
2022-10-22T07:16:42.059Z,62.51
2022-10-22T07:19:11.391Z,60.99
2022-10-22T07:21:38.055Z,62.99
2022-10-22T07:24:04.791Z,61.56
2022-10-22T07:26:33.624Z,62.06
2022-10-22T07:29:03.144Z,62.47
2022-10-22T07:31:34.423Z,62.30
2022-10-22T07:34:03.250Z,62.01
2022-10-22T07:36:29.748Z,62.19
2022-10-22T07:38:58.166Z,62.04
2022-10-22T07:41:25.515Z,62.80
2022-10-22T07:43:52.042Z,61.34
2022-10-22T07:46:21.801Z,61.52
2022-10-22T07:48:48.678Z,61.42
2022-10-22T07:51:15.759Z,61.69
2022-10-22T07:53:44.354Z,59.93
2022-10-22T07:56:13.938Z,59.59
2022-10-22T07:58:41.581Z,61.49
2022-10-22T08:01:08.187Z,58.19
2022-10-22T08:03:37.499Z,58.01
2022-10-22T08:06:04.268Z,56.74
2022-10-22T08:08:36.064Z,56.27
2022-10-22T08:11:05.579Z,57.13
2022-10-22T08:13:32.111Z,59.34
2022-10-22T08:16:02.156Z,56.35
2022-10-22T08:18:31.690Z,56.48
2022-10-22T08:20:58.561Z,56.49
2022-10-22T08:23:29.925Z,56.96
2022-10-22T08:26:02.967Z,57.51
2022-10-22T08:28:35.905Z,55.78
2022-10-22T08:31:07.388Z,55.96
2022-10-22T08:33:34.524Z,56.31
2022-10-22T08:36:03.646Z,55.42
2022-10-22T08:38:35.309Z,55.20
2022-10-22T08:41:23.655Z,56.41
2022-10-22T08:44:10.770Z,53.95
2022-10-22T08:46:46.315Z,55.31
2022-10-22T08:49:24.464Z,54.52
2022-10-22T08:51:51.591Z,54.71
2022-10-22T08:54:41.498Z,54.95
2022-10-22T08:57:26.670Z,55.48
2022-10-22T09:00:02.084Z,54.39
2022-10-22T09:02:40.699Z,54.39
2022-10-22T09:05:25.638Z,54.04
2022-10-22T09:07:53.141Z,56.67
2022-10-22T09:10:24.661Z,54.82
2022-10-22T09:12:51.259Z,53.86
2022-10-22T09:15:21.636Z,56.23
2022-10-22T09:17:59.904Z,57.04
2022-10-22T09:20:55.853Z,57.98
2022-10-22T09:23:43.995Z,64.55
2022-10-22T09:26:16.123Z,57.55
2022-10-22T09:28:43.364Z,55.51
2022-10-22T09:31:14.624Z,54.74
2022-10-22T09:33:48.956Z,54.42
2022-10-22T09:36:22.336Z,54.45
2022-10-22T09:38:55.796Z,55.03
2022-10-22T09:41:26.503Z,54.08
2022-10-22T09:43:55.307Z,55.17
2022-10-22T09:46:24.920Z,54.57
2022-10-22T09:48:57.536Z,53.81
2022-10-22T09:51:42.386Z,54.12
2022-10-22T09:54:44.801Z,56.32
2022-10-22T09:57:17.533Z,54.62
2022-10-22T09:59:47.375Z,55.11
2022-10-22T10:02:37.089Z,54.74
2022-10-22T10:05:05.869Z,54.32
2022-10-22T10:07:37.127Z,53.78
2022-10-22T10:10:28.383Z,53.73
2022-10-22T10:13:12.332Z,55.03
2022-10-22T10:15:52.789Z,55.95
2022-10-22T10:18:44.261Z,54.99
2022-10-22T10:21:56.549Z,55.77
2022-10-22T10:24:41.203Z,56.31
2022-10-22T10:27:44.931Z,55.08
2022-10-22T10:30:25.960Z,55.52
2022-10-22T10:33:22.119Z,56.32
2022-10-22T10:36:25.326Z,56.59
2022-10-22T10:39:08.872Z,56.76
2022-10-22T10:41:45.904Z,56.17
2022-10-22T10:44:31.020Z,56.12
2022-10-22T10:47:11.554Z,56.37
2022-10-22T10:49:38.142Z,54.67
2022-10-22T10:52:29.309Z,53.09
2022-10-22T10:55:18.868Z,54.41
2022-10-22T10:58:02.555Z,55.73
2022-10-22T11:00:37.377Z,54.33
2022-10-22T11:03:15.490Z,54.46
2022-10-22T11:05:55.817Z,54.65
2022-10-22T11:08:28.981Z,55.64
2022-10-22T11:11:03.844Z,55.27
2022-10-22T11:13:50.801Z,55.59
2022-10-22T11:16:26.261Z,57.07
2022-10-22T11:19:06.016Z,54.46
2022-10-22T11:22:09.556Z,55.22
2022-10-22T11:24:50.824Z,55.41
2022-10-22T11:27:37.394Z,54.74
2022-10-22T11:30:14.933Z,55.71
2022-10-22T11:32:44.219Z,54.73
2022-10-22T11:35:24.853Z,54.74
2022-10-22T11:37:55.903Z,55.20
2022-10-22T11:40:28.662Z,55.71
2022-10-22T11:43:08.813Z,56.12
2022-10-22T11:45:43.654Z,58.28
2022-10-22T11:48:12.532Z,56.37
2022-10-22T11:50:44.983Z,57.41
2022-10-22T11:53:17.291Z,56.88
2022-10-22T11:55:49.140Z,57.49
2022-10-22T11:58:28.256Z,57.71
2022-10-22T12:01:00.142Z,56.00
2022-10-22T12:03:35.064Z,54.77
2022-10-22T12:06:15.626Z,54.80
2022-10-22T12:08:46.458Z,55.40
2022-10-22T12:11:24.982Z,55.17
2022-10-22T12:14:00.349Z,55.49
2022-10-22T12:16:56.073Z,55.64
2022-10-22T12:19:23.696Z,55.43
2022-10-22T12:21:57.757Z,55.69
2022-10-22T12:24:34.427Z,56.17
2022-10-22T12:27:03.675Z,56.31
2022-10-22T12:29:35.238Z,55.78
2022-10-22T12:32:07.466Z,56.93
2022-10-22T12:34:34.027Z,59.67
2022-10-22T12:37:06.816Z,58.31
2022-10-22T12:39:35.661Z,57.06
2022-10-22T12:42:06.281Z,58.70
2022-10-22T12:44:35.281Z,58.91
2022-10-22T12:47:01.982Z,57.76
2022-10-22T12:49:40.800Z,58.70
2022-10-22T12:52:14.156Z,60.21
2022-10-22T12:54:40.886Z,62.16
2022-10-22T12:57:13.426Z,60.62
2022-10-22T12:59:45.854Z,61.87
2022-10-22T13:02:17.362Z,61.78
2022-10-22T13:05:18.899Z,60.22
2022-10-22T13:07:55.242Z,58.26
2022-10-22T13:10:27.453Z,60.73
2022-10-22T13:12:58.700Z,60.61
2022-10-22T13:15:28.243Z,61.63
2022-10-22T13:18:21.038Z,62.01
2022-10-22T13:21:03.130Z,60.66
2022-10-22T13:23:31.926Z,62.04
2022-10-22T13:26:04.151Z,61.98
2022-10-22T13:28:32.400Z,62.27
2022-10-22T13:31:15.200Z,62.99
2022-10-22T13:33:46.318Z,59.47
2022-10-22T13:36:16.643Z,59.67
2022-10-22T13:38:44.524Z,61.39
2022-10-22T13:41:32.295Z,61.48
2022-10-22T13:43:58.923Z,62.58
2022-10-22T13:46:29.497Z,63.65
2022-10-22T13:48:59.956Z,60.43
2022-10-22T13:51:36.375Z,61.63
2022-10-22T13:54:04.301Z,62.59
2022-10-22T13:56:33.097Z,62.16
2022-10-22T13:58:59.577Z,62.86
2022-10-22T14:01:27.592Z,62.35
2022-10-22T14:03:58.789Z,63.06
2022-10-22T14:06:31.351Z,63.90
2022-10-22T14:09:00.267Z,63.90
2022-10-22T14:11:31.181Z,63.67
2022-10-22T14:14:00.128Z,62.45
2022-10-22T14:16:27.551Z,62.77
2022-10-22T14:18:55.094Z,62.63
2022-10-22T14:21:21.856Z,63.13
2022-10-22T14:23:52.723Z,63.18
2022-10-22T14:26:28.221Z,63.38
2022-10-22T14:29:09.252Z,64.42
2022-10-22T14:34:17.051Z,62.48
2022-10-22T14:36:47.001Z,63.04
2022-10-22T14:39:14.023Z,62.73
2022-10-22T14:41:41.461Z,62.48
2022-10-22T14:44:12.711Z,63.41
2022-10-22T14:46:44.012Z,62.90
2022-10-22T14:49:10.703Z,62.21
2022-10-22T14:51:37.188Z,62.95
2022-10-22T14:54:06.245Z,63.46
2022-10-22T14:56:38.549Z,63.02
2022-10-22T14:59:07.440Z,63.31
2022-10-22T15:01:34.210Z,64.25
2022-10-22T15:04:00.735Z,64.71
2022-10-22T15:06:27.252Z,64.80
2022-10-22T15:08:56.339Z,65.01
2022-10-22T15:11:27.390Z,65.84
2022-10-22T15:13:56.242Z,65.89
2022-10-22T15:16:25.818Z,65.36
2022-10-22T15:18:54.995Z,66.12
2022-10-22T15:21:26.363Z,66.83
2022-10-22T15:23:55.338Z,67.98
2022-10-22T15:26:24.208Z,68.43
2022-10-22T15:28:52.740Z,67.57
2022-10-22T15:31:54.673Z,67.88
2022-10-22T15:34:27.322Z,68.18
2022-10-22T15:36:56.352Z,69.05
2022-10-22T15:39:23.324Z,68.27
2022-10-22T15:41:50.886Z,67.52
2022-10-22T15:44:25.362Z,73.36
2022-10-22T15:46:54.809Z,70.98
2022-10-22T15:49:25.189Z,69.89
2022-10-22T15:51:53.946Z,69.24
2022-10-22T15:54:25.822Z,70.72
2022-10-22T15:56:54.629Z,71.18
2022-10-22T15:59:25.869Z,72.57
2022-10-22T16:01:54.634Z,72.62
2022-10-22T16:04:23.596Z,74.07
2022-10-22T16:06:52.752Z,73.86
2022-10-22T16:09:22.662Z,74.40
2022-10-22T16:11:54.507Z,76.32
2022-10-22T16:14:24.339Z,77.91
2022-10-22T16:16:53.421Z,77.91
2022-10-22T16:19:22.340Z,77.81
2022-10-22T16:21:50.146Z,78.96
2022-10-22T16:24:20.177Z,78.55
2022-10-22T16:26:53.166Z,78.86
2022-10-22T16:29:20.066Z,78.89
2022-10-22T16:31:46.582Z,78.72
2022-10-22T16:34:15.588Z,79.31
2022-10-22T16:36:44.595Z,80.27
2022-10-22T16:39:11.250Z,79.45
2022-10-22T16:41:38.386Z,80.52
2022-10-22T16:44:10.594Z,81.60
2022-10-22T16:46:39.486Z,82.54
2022-10-22T16:49:07.115Z,81.71
2022-10-22T16:51:34.484Z,81.36
2022-10-22T16:54:01.237Z,81.66
2022-10-22T16:56:31.001Z,82.00
2022-10-22T16:59:00.851Z,81.84
2022-10-22T17:01:30.341Z,81.72
2022-10-22T17:04:00.429Z,81.99
2022-10-22T17:06:27.425Z,82.70
2022-10-22T17:08:54.013Z,81.22
2022-10-22T17:11:22.727Z,81.97
2022-10-22T17:13:53.865Z,82.74
2022-10-22T17:16:24.918Z,81.33
2022-10-22T17:18:53.579Z,82.39
2022-10-22T17:21:22.900Z,81.95
2022-10-22T17:23:53.646Z,81.33
2022-10-22T17:26:26.459Z,81.43
2022-10-22T17:28:53.393Z,80.54
2022-10-22T17:31:32.681Z,79.58
2022-10-22T17:34:00.040Z,82.18
2022-10-22T17:36:35.027Z,81.01
2022-10-22T17:39:07.772Z,80.45
2022-10-22T17:41:37.563Z,80.49
2022-10-22T17:44:06.195Z,82.38
2022-10-22T17:46:35.926Z,82.73
2022-10-22T17:49:06.937Z,83.68
2022-10-22T17:51:33.616Z,83.58
2022-10-22T17:54:05.942Z,83.51
2022-10-22T17:56:37.001Z,82.96
2022-10-22T17:59:05.760Z,82.79
2022-10-22T18:01:43.280Z,84.05
2022-10-22T18:04:14.500Z,84.70
2022-10-22T18:06:41.234Z,84.78
2022-10-22T18:09:11.470Z,84.18
2022-10-22T18:11:42.373Z,85.30
2022-10-22T18:14:08.803Z,85.26
2022-10-22T18:16:38.152Z,84.81
2022-10-22T18:19:06.540Z,85.06
2022-10-22T18:21:33.210Z,85.03
2022-10-22T18:24:07.041Z,85.96
2022-10-22T18:26:33.630Z,86.32
2022-10-22T18:29:00.244Z,87.16
2022-10-22T18:31:28.450Z,87.23
2022-10-22T18:33:57.825Z,87.53
2022-10-22T18:36:26.548Z,87.66
2022-10-22T18:38:58.034Z,88.03
2022-10-22T18:41:25.359Z,87.91
2022-10-22T18:44:03.462Z,88.28
2022-10-22T18:46:40.178Z,87.95
2022-10-22T18:49:15.605Z,87.98
2022-10-22T18:51:42.110Z,87.29
2022-10-22T18:54:22.569Z,86.75
2022-10-22T18:57:00.468Z,86.76
2022-10-22T18:59:28.896Z,86.35
2022-10-22T19:01:59.304Z,86.55
2022-10-22T19:04:31.024Z,86.81
2022-10-22T19:06:58.009Z,86.15
2022-10-22T19:09:28.313Z,86.31
2022-10-22T19:11:58.119Z,85.31
2022-10-22T19:14:24.663Z,84.87
2022-10-22T19:16:53.346Z,84.54
2022-10-22T19:19:27.783Z,83.77
2022-10-22T19:21:56.545Z,84.22
2022-10-22T19:24:25.047Z,84.52
2022-10-22T19:26:54.583Z,85.50
2022-10-22T19:29:21.812Z,85.52
2022-10-22T19:31:51.286Z,85.50
2022-10-22T19:34:18.904Z,85.16
2022-10-22T19:36:47.914Z,84.68
2022-10-22T19:39:18.907Z,84.68
2022-10-22T19:41:45.482Z,84.87
2022-10-22T19:44:12.097Z,85.04
2022-10-22T19:46:38.847Z,85.41
2022-10-22T19:49:06.481Z,85.96
2022-10-22T19:51:34.456Z,85.37
2022-10-22T19:54:08.958Z,85.80
2022-10-22T19:56:36.194Z,86.55
2022-10-22T19:59:04.350Z,86.46
2022-10-22T20:01:32.045Z,86.04
2022-10-22T20:04:01.617Z,85.44
2022-10-22T20:06:30.867Z,85.92
2022-10-22T20:08:59.657Z,86.01
2022-10-22T20:11:30.113Z,85.54
2022-10-22T20:13:57.260Z,86.40
2022-10-22T20:16:25.986Z,87.10
2022-10-22T20:18:58.616Z,86.31
2022-10-22T20:21:25.130Z,87.40
2022-10-22T20:23:56.601Z,86.03
2022-10-22T20:26:28.191Z,86.18
2022-10-22T20:28:56.507Z,85.32
2022-10-22T20:31:25.034Z,84.88
2022-10-22T20:33:57.382Z,84.21
2022-10-22T20:36:27.146Z,83.87
2022-10-22T20:39:00.753Z,86.53
2022-10-22T20:41:33.979Z,86.35
2022-10-22T20:44:03.204Z,85.80
2022-10-22T20:46:31.988Z,86.20
2022-10-22T20:49:04.774Z,86.24
2022-10-22T20:51:31.936Z,87.24
2022-10-22T20:54:03.296Z,86.54
2022-10-22T20:56:35.062Z,85.97
2022-10-22T20:59:04.970Z,84.67
2022-10-22T21:01:38.496Z,85.33
2022-10-22T21:04:05.905Z,85.70
2022-10-22T21:06:33.068Z,85.84
2022-10-22T21:08:59.761Z,84.90
2022-10-22T21:11:26.300Z,85.81
2022-10-22T21:13:52.778Z,85.35
2022-10-22T21:16:21.567Z,85.02
2022-10-22T21:18:48.375Z,85.43
2022-10-22T21:21:19.108Z,85.56
2022-10-22T21:23:50.251Z,85.46
2022-10-22T21:26:20.134Z,84.86
2022-10-22T21:28:54.450Z,86.77
2022-10-22T21:31:26.333Z,86.75
2022-10-22T21:33:55.883Z,87.69
2022-10-22T21:36:23.754Z,88.77
2022-10-22T21:38:53.962Z,89.60
2022-10-22T21:41:26.551Z,89.59
2022-10-22T21:43:53.076Z,89.34
2022-10-22T21:46:24.345Z,89.85
2022-10-22T21:49:01.518Z,89.29
2022-10-22T21:51:33.018Z,88.67
2022-10-22T21:54:01.947Z,87.88
2022-10-22T21:56:32.880Z,87.90
2022-10-22T21:59:07.241Z,88.24
2022-10-22T22:01:43.012Z,87.78
2022-10-22T22:04:12.251Z,87.62
2022-10-22T22:06:41.024Z,87.15
2022-10-22T22:09:07.633Z,87.21
2022-10-22T22:11:34.464Z,87.43
2022-10-22T22:14:01.130Z,86.78
2022-10-22T22:16:32.884Z,87.96
2022-10-22T22:21:31.485Z,87.23
2022-10-22T22:23:58.901Z,86.77
2022-10-22T22:26:29.646Z,87.40
2022-10-22T22:28:59.866Z,86.74
2022-10-22T22:31:31.865Z,86.73
2022-10-22T22:34:12.833Z,86.75
2022-10-22T22:36:45.410Z,87.27
2022-10-22T22:39:16.918Z,87.20
2022-10-22T22:41:44.376Z,86.17
2022-10-22T22:44:11.417Z,85.15
2022-10-22T22:46:40.152Z,85.46
2022-10-22T22:49:07.095Z,85.12
2022-10-22T22:51:33.673Z,86.92
2022-10-22T22:54:03.532Z,86.56
2022-10-22T22:56:32.085Z,86.54
2022-10-22T22:59:01.030Z,86.30
2022-10-22T23:01:32.797Z,86.79
2022-10-22T23:04:05.187Z,86.22
2022-10-22T23:06:36.189Z,86.16
2022-10-22T23:09:08.134Z,87.20
2022-10-22T23:11:37.494Z,86.91
2022-10-22T23:14:06.534Z,86.27
2022-10-22T23:16:37.868Z,86.13
2022-10-22T23:19:07.219Z,87.47
2022-10-22T23:21:37.236Z,86.82
2022-10-22T23:24:11.708Z,87.81
2022-10-22T23:26:45.374Z,87.09
2022-10-22T23:29:15.490Z,87.09
2022-10-22T23:31:43.157Z,87.33
2022-10-22T23:34:11.563Z,87.74
2022-10-22T23:36:42.814Z,87.58
2022-10-22T23:39:13.270Z,86.43
2022-10-22T23:41:39.886Z,86.33
2022-10-22T23:44:10.370Z,85.82
2022-10-22T23:46:43.305Z,86.06
2022-10-22T23:49:12.903Z,86.96
2022-10-22T23:51:44.289Z,87.08
2022-10-22T23:54:13.666Z,87.32
2022-10-22T23:56:42.942Z,87.62
2022-10-22T23:59:09.921Z,88.55
